Faribault, MN (55021)

3:19 PM CST on November 23, 2014 (GMT -0600)
Faribault Municipal | Change Station
CLOSE
Current Station
Airport
Location: Faribault,
Elevation: 1060 ft
Nearby Weather Stations

Elev 1060 ft 44.33 °N, 93.31 °W | Updated 5 minutes ago

Overcast
Overcast
45 °F
Feels Like 39 °F
N
12
Wind Variable Wind from WNW

Today
High -- | Low -- °F
--% Chance of Precip.
Yesterday
High -- | Low -- °F
Precip. -- in
7:19 AM 4:39 PM
New Moon, 2% visible
Pressure 29.38 in
Visibility 10.0 miles
Clouds Scattered Clouds 1600 ft
Scattered Clouds 2500 ft
Overcast 3400 ft
Windchill 39 °F
Dew Point 39 °F
Humidity 81%
Rainfall 0.00 in
Snow Depth Not available.
UV 0 out of 12
Pollen .10 out of 12
Air Quality Not available.
Flu Activity Not available.
METAR KFBL 232114Z AUTO 30010KT 10SM SCT016 SCT025 OVC034 07/04 A2938 RMK AO2

More Conditions Fewer Conditions

Pressure 29.38 in
Visibility 10.0 miles
Clouds Scattered Clouds 1600 ft
Scattered Clouds 2500 ft
Overcast 3400 ft
Windchill 39 °F
Dew Point 39 °F
Humidity 81%
Rainfall 0.00 in
Snow Depth Not available.
UV 0 out of 12
Pollen .10 out of 12
Air Quality Not available.
Flu Activity Not available.
METAR KFBL 232114Z AUTO 30010KT 10SM SCT016 SCT025 OVC034 07/04 A2938 RMK AO2

More Conditions Fewer Conditions

Nowcast | as of 2:26 PM CST on November 23, 2014

A band of light rain...drizzle and fog is falling just west of Minneapolis and St Paul...across parts of the western Twin City Metro area...and extending from Duluth in the northeast to Lake Mille lacs adn St cloud in the central...and redood falls and Worthington in the southwest parts of Minnesota. The trailing edge is moving towards the Twin Cities and eastern Minnesota between now and 600 PM. Light accumulations of a few hundreths up to a tenth inch of rain are expected.

×

10-Day Weather Forecast

Almanac

Astronomy

Nov. 23, 2014 Rise Set
Actual Time
Civil Twilight
Nautical Twilight
Astronomical Twilight
Moon
Length of Visible Light
Length of Day
Tomorrow will be .
, % of the Moon is Illuminated

Today's Extremes

State Highs State Lows

Community

WunderPhotos

Upload Photos

1,773,176 photos uploaded!

WunderBlogs® & News

Nearby

Air Quality

  Air Quality AQ Index Pollutant
Not available.

Snow Depth

Station Depth Elevation

Earthquake Activity

City Distance Mag. Time & Date
Minimum magnitude displayed is 2.5.

Coastal Water Temperatures

Place Temperature

Nearby Weather Stations